createdAt,value
2022-12-31T00:01:38.182Z,98997.80
2022-12-31T00:04:46.866Z,98985.80
2022-12-31T00:07:54.805Z,98988.80
2022-12-31T00:11:02.577Z,98989.40
2022-12-31T00:14:10.826Z,98990.60
2022-12-31T00:17:18.663Z,98993.80
2022-12-31T00:20:26.471Z,99002.00
2022-12-31T00:23:34.569Z,99012.40
2022-12-31T00:26:44.105Z,99018.60
2022-12-31T00:29:52.097Z,99022.80
2022-12-31T00:33:00.139Z,99025.40
2022-12-31T00:39:31.979Z,99046.80
2022-12-31T00:42:40.154Z,99046.40
2022-12-31T00:45:48.132Z,99055.80
2022-12-31T00:48:56.250Z,99049.40
2022-12-31T00:52:04.620Z,99046.40
2022-12-31T00:55:13.803Z,99048.80
2022-12-31T00:58:22.279Z,99045.60
2022-12-31T01:01:33.634Z,99037.40
2022-12-31T01:04:41.456Z,99038.40
2022-12-31T01:07:49.213Z,99035.20
2022-12-31T01:11:14.491Z,99043.40
2022-12-31T01:14:23.422Z,99056.80
2022-12-31T01:17:31.429Z,99062.00
2022-12-31T01:20:44.057Z,99060.60
2022-12-31T01:23:52.372Z,99068.00
2022-12-31T01:27:00.206Z,99075.20
2022-12-31T01:30:11.151Z,99071.80
2022-12-31T01:33:18.959Z,99078.40
2022-12-31T01:36:32.245Z,99085.60
2022-12-31T01:39:40.108Z,99076.20
2022-12-31T01:42:54.720Z,99071.80
2022-12-31T01:46:02.929Z,99072.20
2022-12-31T01:49:18.998Z,99073.60
2022-12-31T01:52:32.005Z,99074.40
2022-12-31T01:55:48.013Z,99080.00
2022-12-31T01:58:58.958Z,99072.80
2022-12-31T02:02:07.918Z,99078.60
2022-12-31T02:05:25.730Z,99078.80
2022-12-31T02:08:39.936Z,99078.60
2022-12-31T02:11:49.583Z,99080.20
2022-12-31T02:14:59.015Z,99067.80
2022-12-31T02:18:18.862Z,99079.40
2022-12-31T02:22:02.096Z,99078.80
2022-12-31T02:25:46.567Z,99090.00
2022-12-31T02:29:32.262Z,99094.60
2022-12-31T02:33:15.029Z,99096.20
2022-12-31T02:36:28.276Z,99093.80
2022-12-31T02:39:37.872Z,99093.80
2022-12-31T02:42:50.092Z,99076.40
2022-12-31T02:46:18.431Z,99069.20
2022-12-31T02:49:41.785Z,99074.80
2022-12-31T02:53:09.264Z,99083.20
2022-12-31T02:56:28.820Z,99079.60
2022-12-31T03:00:00.281Z,99080.00
2022-12-31T03:03:10.517Z,99079.00
2022-12-31T03:06:19.310Z,99064.00
2022-12-31T03:09:27.298Z,99086.40
2022-12-31T03:12:49.664Z,99082.80
2022-12-31T03:15:57.678Z,99072.40
2022-12-31T03:19:23.366Z,99070.20
2022-12-31T03:22:31.669Z,99066.60
2022-12-31T03:25:40.536Z,99068.20
2022-12-31T03:28:49.127Z,99066.00
2022-12-31T03:31:56.914Z,99072.20
2022-12-31T03:35:05.136Z,99076.80
2022-12-31T03:38:14.508Z,99078.80
2022-12-31T03:41:22.684Z,99076.00
2022-12-31T03:44:30.990Z,99087.20
2022-12-31T03:47:39.702Z,99082.60
2022-12-31T03:50:47.860Z,99075.40
2022-12-31T03:53:55.745Z,99076.60
2022-12-31T03:57:03.663Z,99067.60
2022-12-31T04:00:19.353Z,99051.80
2022-12-31T04:03:28.533Z,99050.80
2022-12-31T04:06:36.349Z,99053.20
2022-12-31T04:09:44.568Z,99064.00
2022-12-31T04:12:52.510Z,99084.40
2022-12-31T04:16:00.693Z,99086.40
2022-12-31T04:19:08.840Z,99081.60
2022-12-31T04:22:16.803Z,99083.80
2022-12-31T04:25:24.982Z,99088.00
2022-12-31T04:28:32.748Z,99098.60
2022-12-31T04:31:40.766Z,99107.00
2022-12-31T04:34:49.782Z,99118.60
2022-12-31T04:37:57.771Z,99121.80
2022-12-31T04:41:21.162Z,99126.20
2022-12-31T04:45:01.891Z,99126.60
2022-12-31T04:48:10.602Z,99132.80
2022-12-31T04:51:19.174Z,99129.60
2022-12-31T04:54:22.911Z,99136.60
2022-12-31T04:57:30.839Z,99146.60
2022-12-31T05:00:38.847Z,99157.20
2022-12-31T05:03:49.403Z,99153.20
2022-12-31T05:06:57.227Z,99150.40
2022-12-31T05:10:05.871Z,99151.20
2022-12-31T05:13:14.685Z,99152.60
2022-12-31T05:16:22.788Z,99154.60
2022-12-31T05:19:31.909Z,99157.40
2022-12-31T05:22:40.353Z,99162.40
2022-12-31T05:25:50.043Z,99161.20
2022-12-31T05:29:00.425Z,99165.60
2022-12-31T05:32:08.487Z,99162.20
2022-12-31T05:35:16.271Z,99156.80
2022-12-31T05:38:24.406Z,99163.60
2022-12-31T05:41:32.327Z,99174.00
2022-12-31T05:44:40.276Z,99171.20
2022-12-31T05:47:48.521Z,99180.20
2022-12-31T05:50:56.294Z,99191.20
2022-12-31T05:54:04.295Z,99203.00
2022-12-31T05:57:12.676Z,99200.60
2022-12-31T06:00:21.759Z,99199.00
2022-12-31T06:03:30.086Z,99199.80
2022-12-31T06:06:38.231Z,99205.20
2022-12-31T06:09:46.132Z,99202.40
2022-12-31T06:12:53.937Z,99202.00
2022-12-31T06:16:07.979Z,99202.40
2022-12-31T06:19:16.184Z,99200.80
2022-12-31T06:22:23.921Z,99196.20
2022-12-31T06:25:31.789Z,99201.20
2022-12-31T06:28:39.656Z,99197.80
2022-12-31T06:31:47.774Z,99201.20
2022-12-31T06:34:55.580Z,99213.40
2022-12-31T06:38:03.587Z,99209.60
2022-12-31T06:41:15.170Z,99202.60
2022-12-31T06:44:23.787Z,99201.20
2022-12-31T06:47:31.509Z,99200.20
2022-12-31T06:50:40.564Z,99199.00
2022-12-31T06:53:50.379Z,99197.40
2022-12-31T06:56:57.667Z,99206.00
2022-12-31T07:00:08.850Z,99207.60
2022-12-31T07:03:36.883Z,99208.40
2022-12-31T07:06:53.928Z,99213.80
2022-12-31T07:10:15.293Z,99211.00
2022-12-31T07:14:15.029Z,99208.80
2022-12-31T07:17:39.832Z,99213.00
2022-12-31T07:20:49.452Z,99214.60
2022-12-31T07:24:00.750Z,99208.80
2022-12-31T07:27:35.994Z,99202.20
2022-12-31T07:31:00.809Z,99203.00
2022-12-31T07:34:21.180Z,99204.20
2022-12-31T07:37:45.624Z,99216.00
2022-12-31T07:41:10.041Z,99225.40
2022-12-31T07:44:37.857Z,99233.80
2022-12-31T07:47:47.355Z,99240.00
2022-12-31T07:50:58.305Z,99243.40
2022-12-31T07:54:13.403Z,99244.20
2022-12-31T07:57:26.784Z,99258.80
2022-12-31T08:00:36.120Z,99274.60
2022-12-31T08:04:03.164Z,99273.80
2022-12-31T08:07:26.931Z,99282.20
2022-12-31T08:10:53.567Z,99276.60
2022-12-31T08:14:13.067Z,99278.20
2022-12-31T08:17:24.935Z,99286.80
2022-12-31T08:20:37.658Z,99291.00
2022-12-31T08:23:55.740Z,99310.20
2022-12-31T08:27:13.644Z,99326.40
2022-12-31T08:30:26.112Z,99337.00
2022-12-31T08:33:45.681Z,99338.80
2022-12-31T08:37:02.559Z,99343.40
2022-12-31T08:40:25.742Z,99349.80
2022-12-31T08:43:50.462Z,99351.40
2022-12-31T08:47:14.208Z,99345.40
2022-12-31T08:50:24.594Z,99350.40
2022-12-31T08:53:35.342Z,99356.20
2022-12-31T08:56:50.878Z,99361.00
2022-12-31T09:00:12.497Z,99352.00
2022-12-31T09:03:46.789Z,99358.40
2022-12-31T09:07:01.961Z,99355.00
2022-12-31T09:10:23.880Z,99354.40
2022-12-31T09:13:55.254Z,99345.20
2022-12-31T09:17:16.349Z,99338.40
2022-12-31T09:20:42.457Z,99326.40
2022-12-31T09:23:54.817Z,99309.80
2022-12-31T09:27:18.278Z,99292.40
2022-12-31T09:30:34.862Z,99290.80
2022-12-31T09:33:52.943Z,99289.20
2022-12-31T09:37:08.734Z,99294.80
2022-12-31T09:41:00.583Z,99292.40
2022-12-31T09:44:54.563Z,99287.60
2022-12-31T09:48:43.810Z,99281.80
2022-12-31T09:52:13.760Z,99275.40
2022-12-31T09:55:47.345Z,99270.20
2022-12-31T09:59:07.628Z,99273.20
2022-12-31T10:02:42.811Z,99268.80
2022-12-31T10:06:21.219Z,99282.20
2022-12-31T10:09:51.213Z,99283.80
2022-12-31T10:13:21.904Z,99281.80
2022-12-31T10:16:54.260Z,99281.40
2022-12-31T10:20:55.079Z,99277.80
2022-12-31T10:24:30.560Z,99277.00
2022-12-31T10:27:52.971Z,99273.80
2022-12-31T10:31:16.590Z,99268.20
2022-12-31T10:34:40.215Z,99263.80
2022-12-31T10:37:59.108Z,99276.00
2022-12-31T10:41:49.718Z,99276.00
2022-12-31T10:45:43.938Z,99281.40
2022-12-31T10:49:55.825Z,99282.00
2022-12-31T10:53:53.872Z,99275.20
2022-12-31T10:57:42.065Z,99273.80
2022-12-31T11:01:03.840Z,99263.00
2022-12-31T11:08:28.487Z,99255.80
2022-12-31T11:11:47.236Z,99257.40
2022-12-31T11:15:32.148Z,99257.20
2022-12-31T11:18:56.594Z,99252.00
2022-12-31T11:22:39.430Z,99248.60
2022-12-31T11:26:06.524Z,99258.80
2022-12-31T11:29:32.035Z,99249.20
2022-12-31T11:33:03.777Z,99241.20
2022-12-31T11:36:26.510Z,99246.40
2022-12-31T11:40:00.314Z,99250.60
2022-12-31T11:43:25.223Z,99252.00
2022-12-31T11:46:52.801Z,99250.60
2022-12-31T11:50:26.500Z,99263.40
2022-12-31T11:54:02.449Z,99270.60
2022-12-31T11:57:28.925Z,99270.60
2022-12-31T12:00:40.011Z,99274.60
2022-12-31T12:03:48.622Z,99270.20
2022-12-31T12:06:57.963Z,99266.80
2022-12-31T12:10:23.464Z,99268.40
2022-12-31T12:13:32.291Z,99266.20
2022-12-31T12:16:40.862Z,99267.00
2022-12-31T12:19:58.268Z,99267.40
2022-12-31T12:23:17.809Z,99261.80
2022-12-31T12:26:37.539Z,99243.80
2022-12-31T12:29:47.484Z,99240.40
2022-12-31T12:33:02.416Z,99245.40
2022-12-31T12:36:17.192Z,99256.80
2022-12-31T12:39:28.632Z,99262.40
2022-12-31T12:42:37.114Z,99279.00
2022-12-31T12:45:52.083Z,99280.80
2022-12-31T12:49:01.743Z,99272.60
2022-12-31T12:52:38.861Z,99264.20
2022-12-31T12:56:01.186Z,99280.20
2022-12-31T12:59:48.882Z,99273.00
2022-12-31T13:07:48.644Z,99257.80
2022-12-31T13:11:16.018Z,99250.40
2022-12-31T13:14:36.102Z,99254.20
2022-12-31T13:18:06.637Z,99251.60
2022-12-31T13:21:35.951Z,99246.00
2022-12-31T13:25:02.386Z,99246.40
2022-12-31T13:28:17.146Z,99249.20
2022-12-31T13:31:32.213Z,99263.40
2022-12-31T13:34:48.015Z,99260.40
2022-12-31T13:38:05.411Z,99266.80
2022-12-31T13:41:22.665Z,99268.60
2022-12-31T13:44:41.004Z,99271.40
2022-12-31T13:47:54.160Z,99280.80
2022-12-31T13:51:09.370Z,99274.60
2022-12-31T13:54:33.429Z,99272.40
2022-12-31T13:57:50.107Z,99273.60
2022-12-31T14:01:08.986Z,99283.40
2022-12-31T14:04:28.525Z,99282.60
2022-12-31T14:07:45.968Z,99287.20
2022-12-31T14:11:08.545Z,99280.80
2022-12-31T14:14:32.159Z,99276.00
2022-12-31T14:17:52.089Z,99285.20
2022-12-31T14:21:10.062Z,99291.40
2022-12-31T14:24:32.977Z,99278.60
2022-12-31T14:27:46.585Z,99280.20
2022-12-31T14:31:03.197Z,99291.60
2022-12-31T14:34:20.049Z,99280.60
2022-12-31T14:37:42.933Z,99282.20
2022-12-31T14:41:08.744Z,99276.00
2022-12-31T14:44:33.803Z,99290.40
2022-12-31T14:47:55.100Z,99297.80
2022-12-31T14:51:07.280Z,99299.80
2022-12-31T14:54:36.374Z,99281.80
2022-12-31T14:58:25.822Z,99301.20
2022-12-31T15:01:26.448Z,99296.80
2022-12-31T15:04:46.927Z,99285.00
2022-12-31T15:08:15.703Z,99289.40
2022-12-31T15:11:43.358Z,99305.40
2022-12-31T15:15:42.987Z,99303.60
2022-12-31T15:19:34.898Z,99311.80
2022-12-31T15:22:47.734Z,99301.40
2022-12-31T15:26:01.981Z,99304.40
2022-12-31T15:29:29.307Z,99320.00
2022-12-31T15:32:44.157Z,99326.60
2022-12-31T15:35:56.166Z,99315.60
2022-12-31T15:39:40.590Z,99320.00
2022-12-31T15:42:55.775Z,99314.80
2022-12-31T15:46:10.475Z,99311.80
2022-12-31T15:49:24.360Z,99314.80
2022-12-31T15:52:43.670Z,99324.60
2022-12-31T15:55:57.798Z,99333.00
2022-12-31T15:59:15.825Z,99339.20
2022-12-31T16:02:28.190Z,99333.80
2022-12-31T16:05:39.245Z,99334.20
2022-12-31T16:08:51.299Z,99327.40
2022-12-31T16:12:02.525Z,99322.00
2022-12-31T16:15:25.059Z,99315.80
2022-12-31T16:18:42.950Z,99316.40
2022-12-31T16:21:58.823Z,99324.40
2022-12-31T16:25:30.157Z,99328.40
2022-12-31T16:28:38.476Z,99334.80
2022-12-31T16:31:48.316Z,99337.40
2022-12-31T16:34:54.932Z,99334.60
2022-12-31T16:38:22.486Z,99339.00
2022-12-31T16:41:44.281Z,99329.00
2022-12-31T16:44:54.390Z,99326.00
2022-12-31T16:48:16.746Z,99333.20
2022-12-31T16:51:31.181Z,99329.40
2022-12-31T16:54:45.183Z,99337.00
2022-12-31T16:57:58.005Z,99346.80
2022-12-31T17:01:19.669Z,99344.40
2022-12-31T17:04:28.949Z,99344.40
2022-12-31T17:07:45.836Z,99345.00
2022-12-31T17:10:54.423Z,99341.80
2022-12-31T17:14:17.469Z,99338.60
2022-12-31T17:17:30.045Z,99338.80
2022-12-31T17:20:38.922Z,99340.60
2022-12-31T17:23:56.189Z,99340.40
2022-12-31T17:27:11.330Z,99346.20
2022-12-31T17:30:42.684Z,99349.00
2022-12-31T17:33:53.890Z,99355.20
2022-12-31T17:37:18.275Z,99352.00
2022-12-31T17:44:10.034Z,99359.40
2022-12-31T17:47:18.367Z,99357.80
2022-12-31T17:50:29.668Z,99352.80
2022-12-31T17:53:37.596Z,99342.80
2022-12-31T17:56:46.393Z,99337.40
2022-12-31T17:59:54.973Z,99340.80
2022-12-31T18:03:02.894Z,99333.40
2022-12-31T18:06:16.591Z,99339.20
2022-12-31T18:09:24.698Z,99338.40
2022-12-31T18:12:35.908Z,99342.60
2022-12-31T18:15:45.010Z,99337.40
2022-12-31T18:18:53.176Z,99338.20
2022-12-31T18:22:01.372Z,99343.00
2022-12-31T18:25:14.424Z,99348.00
2022-12-31T18:28:23.304Z,99352.20
2022-12-31T18:31:32.885Z,99359.80
2022-12-31T18:34:40.911Z,99363.40
2022-12-31T18:37:49.572Z,99367.20
2022-12-31T18:41:00.885Z,99363.40
2022-12-31T18:44:11.512Z,99369.40
2022-12-31T18:47:23.723Z,99367.40
2022-12-31T18:50:31.680Z,99370.40
2022-12-31T18:53:39.771Z,99371.20
2022-12-31T18:56:52.555Z,99376.40
2022-12-31T19:00:03.601Z,99379.40
2022-12-31T19:03:16.066Z,99380.40
2022-12-31T19:06:24.690Z,99378.40
2022-12-31T19:09:51.421Z,99376.40
2022-12-31T19:13:00.292Z,99376.60
2022-12-31T19:16:09.906Z,99372.60
2022-12-31T19:19:18.633Z,99387.40
2022-12-31T19:22:26.633Z,99382.00
2022-12-31T19:25:37.778Z,99384.40
2022-12-31T19:28:46.301Z,99382.20
2022-12-31T19:31:54.719Z,99380.80
2022-12-31T19:35:02.807Z,99379.20
2022-12-31T19:38:20.439Z,99371.40
2022-12-31T19:41:28.228Z,99365.60
2022-12-31T19:44:36.071Z,99365.20
2022-12-31T19:47:44.991Z,99362.80
2022-12-31T19:50:55.577Z,99359.80
2022-12-31T19:54:03.617Z,99358.00
2022-12-31T19:57:11.269Z,99359.80
2022-12-31T20:00:21.376Z,99352.20
2022-12-31T20:03:29.544Z,99351.40
2022-12-31T20:06:37.644Z,99347.40
2022-12-31T20:09:45.496Z,99352.80
2022-12-31T20:12:53.621Z,99359.20
2022-12-31T20:16:01.415Z,99353.60
2022-12-31T20:19:10.503Z,99347.80
2022-12-31T20:22:18.578Z,99337.20
2022-12-31T20:25:27.073Z,99338.60
2022-12-31T20:28:34.914Z,99344.00
2022-12-31T20:31:42.857Z,99342.60
2022-12-31T20:34:50.766Z,99345.20
2022-12-31T20:37:59.177Z,99345.80
2022-12-31T20:41:13.625Z,99337.20
2022-12-31T20:44:21.712Z,99337.60
2022-12-31T20:47:29.443Z,99334.00
2022-12-31T20:50:37.664Z,99334.40
2022-12-31T20:53:51.418Z,99336.80
2022-12-31T20:57:00.225Z,99333.40
2022-12-31T21:00:12.444Z,99334.60
2022-12-31T21:04:02.333Z,99328.20
2022-12-31T21:06:49.306Z,99328.20
2022-12-31T21:09:57.396Z,99328.20
2022-12-31T21:13:05.203Z,99330.20
2022-12-31T21:16:13.342Z,99328.60
2022-12-31T21:19:21.257Z,99335.60
2022-12-31T21:22:30.262Z,99341.00
2022-12-31T21:25:38.065Z,99348.80
2022-12-31T21:28:46.158Z,99362.00
2022-12-31T21:31:54.183Z,99360.20
2022-12-31T21:35:40.453Z,99369.60
2022-12-31T21:38:30.609Z,99380.40
2022-12-31T21:41:54.167Z,99383.40
2022-12-31T21:45:02.168Z,99383.60
2022-12-31T21:48:25.122Z,99389.20
2022-12-31T21:51:53.630Z,99390.00
2022-12-31T21:55:21.724Z,99394.20
2022-12-31T21:58:29.726Z,99396.60
2022-12-31T22:01:55.368Z,99388.80
2022-12-31T22:05:07.262Z,99387.60
2022-12-31T22:08:20.923Z,99381.40
2022-12-31T22:11:30.488Z,99383.40
2022-12-31T22:14:38.269Z,99385.60
2022-12-31T22:17:46.616Z,99378.60
2022-12-31T22:21:03.410Z,99376.20
2022-12-31T22:24:12.807Z,99381.40
2022-12-31T22:27:28.255Z,99382.20
2022-12-31T22:30:37.863Z,99372.20
2022-12-31T22:33:47.514Z,99371.40
2022-12-31T22:36:55.480Z,99373.20
2022-12-31T22:40:03.852Z,99377.20
2022-12-31T22:43:12.689Z,99379.40
2022-12-31T22:46:24.200Z,99378.20
2022-12-31T22:49:32.093Z,99374.80
2022-12-31T22:52:40.943Z,99380.00
2022-12-31T22:55:49.048Z,99366.20
2022-12-31T22:58:57.201Z,99359.60
2022-12-31T23:02:05.440Z,99360.60
2022-12-31T23:05:14.875Z,99361.40
2022-12-31T23:08:26.678Z,99357.40
2022-12-31T23:11:35.931Z,99360.00
2022-12-31T23:15:01.932Z,99359.80
2022-12-31T23:18:27.858Z,99364.20
2022-12-31T23:21:54.531Z,99357.40
2022-12-31T23:25:02.437Z,99359.60
2022-12-31T23:28:14.370Z,99365.00
2022-12-31T23:31:22.341Z,99364.20
2022-12-31T23:34:30.236Z,99365.80
2022-12-31T23:37:38.898Z,99364.80
2022-12-31T23:40:47.261Z,99368.20
2022-12-31T23:43:55.294Z,99363.80
2022-12-31T23:47:03.679Z,99363.00
2022-12-31T23:50:13.259Z,99362.40
2022-12-31T23:53:21.446Z,99357.40
2022-12-31T23:56:29.147Z,99349.60
2022-12-31T23:59:36.872Z,99347.60
